Aérodrome :
LOGIN :

S'inscrire | Disclaimer

   EN    FR    IT 

 










Légende :    VFR   VFR Marginal   IFR   IFR Intensif   IFR Très Intensif
Visi : 
Plafond : 
>= 8 km
>= 3000ft
5 à 8 km
1000 à 3000 ft
1500m à 5 km
500 à 1000 ft
800 à 1500m
200 à 500 ft
< 800m
< 200 ft
Symboles :   Orages  Brouillard  Fortes neiges  Fortes précipitations  Vent > 20 kt
SIGMETs :   Divers  Orages  Givrage  Turbulence  Onde Orograph.  Cendres Volcan.







- Altitude de l'aérodrome : 1249 ft


ETSN - Neuburg AB

DERNIER METAR :
  • 210720Z 08008KT 4800 BR OVC003 M00/M01 Q1013 YLO GRN TEMPO AMB

METARs EXPIRÉS :
  • 210700Z 08008KT 4800 BR OVC003 M00/M01 Q1013 YLO GRN TEMPO AMB
  • 210620Z 06006KT 7000 OVC003 M00/M01 Q1013 YLO
  • 210612Z 07006KT 7000 OVC003 M00/M01 Q1013 YLO
  • 210520Z 06006KT 9000 OVC004 M00/M01 Q1012 YLO
  • 210440Z 07004KT 8000 OVC004 M00/M01 Q1012 YLO

TAF TAF ETSN
Valide du 21 à 06h jusqu'au 21 à 15h UTC


210525Z 2106/2115 08007KT 8000 NSW SCT005 OVC008
TEMPO 2106/2115 05005KT 2000 BR BKN002 BY ETGL
Pas de NOTAMs connus pour ce terrain.



MET'MAP, la Météo Aéronautique d'un coup d'oeil ! - Copyright ORBIFLY Décembre 2007 - Disclaimer

ORBIFLY MET'MAP TEAM :

Programmation & Développement : Alexandra Zaïnal
Conception & Développement : Baudouin d'Aumeries
Co-Programmation & Développement : Marc-Olivier Méhu
Soutien technique & logistique : Manuel Goepfert

Contact : metmap@orbifly.com




SOURCES & CREDITS :

   NOAA